sensor_id;sensor_type;location;lat;lon;timestamp;temperature;humidity
13251;DHT22;6692;50.710;7.180;2023-06-24T00:01:35;19.00;99.90
13251;DHT22;6692;50.710;7.180;2023-06-24T00:03:36;19.00;99.90
13251;DHT22;6692;50.710;7.180;2023-06-24T00:05:37;18.90;99.90
13251;DHT22;6692;50.710;7.180;2023-06-24T00:07:38;18.90;99.90
13251;DHT22;6692;50.710;7.180;2023-06-24T00:09:39;18.90;99.90
13251;DHT22;6692;50.710;7.180;2023-06-24T00:11:39;18.90;99.90
13251;DHT22;6692;50.710;7.180;2023-06-24T00:13:41;18.80;99.90
13251;DHT22;6692;50.710;7.180;2023-06-24T00:15:41;18.80;99.90
13251;DHT22;6692;50.710;7.180;2023-06-24T00:17:42;18.80;99.90
13251;DHT22;6692;50.710;7.180;2023-06-24T00:19:43;18.80;99.90
13251;DHT22;6692;50.710;7.180;2023-06-24T00:21:45;18.80;99.90
13251;DHT22;6692;50.710;7.180;2023-06-24T00:23:46;18.80;99.90
13251;DHT22;6692;50.710;7.180;2023-06-24T00:25:47;18.70;99.90
13251;DHT22;6692;50.710;7.180;2023-06-24T00:27:47;18.80;99.90
13251;DHT22;6692;50.710;7.180;2023-06-24T00:29:49;18.80;99.90
13251;DHT22;6692;50.710;7.180;2023-06-24T00:31:50;18.80;99.90
13251;DHT22;6692;50.710;7.180;2023-06-24T00:33:50;18.80;99.90
13251;DHT22;6692;50.710;7.180;2023-06-24T00:35:51;18.80;99.90
13251;DHT22;6692;50.710;7.180;2023-06-24T00:37:52;18.70;99.90
13251;DHT22;6692;50.710;7.180;2023-06-24T00:39:53;18.70;99.90
13251;DHT22;6692;50.710;7.180;2023-06-24T00:41:54;18.70;99.90
13251;DHT22;6692;50.710;7.180;2023-06-24T00:43:55;18.70;99.90
13251;DHT22;6692;50.710;7.180;2023-06-24T00:45:56;18.70;99.90
13251;DHT22;6692;50.710;7.180;2023-06-24T00:47:57;18.60;99.90
13251;DHT22;6692;50.710;7.180;2023-06-24T00:49:57;18.60;99.90
13251;DHT22;6692;50.710;7.180;2023-06-24T00:51:58;18.50;99.90
13251;DHT22;6692;50.710;7.180;2023-06-24T00:54:00;18.50;99.90
13251;DHT22;6692;50.710;7.180;2023-06-24T00:56:00;18.50;99.90
13251;DHT22;6692;50.710;7.180;2023-06-24T00:58:01;18.40;99.90
13251;DHT22;6692;50.710;7.180;2023-06-24T01:00:02;18.50;99.90
13251;DHT22;6692;50.710;7.180;2023-06-24T01:02:04;18.40;99.90
13251;DHT22;6692;50.710;7.180;2023-06-24T01:04:06;18.40;99.90
13251;DHT22;6692;50.710;7.180;2023-06-24T01:06:08;18.40;99.90
13251;DHT22;6692;50.710;7.180;2023-06-24T01:08:07;18.30;99.90
13251;DHT22;6692;50.710;7.180;2023-06-24T01:10:08;18.40;99.90
13251;DHT22;6692;50.710;7.180;2023-06-24T01:12:09;18.40;99.90
13251;DHT22;6692;50.710;7.180;2023-06-24T01:14:10;18.30;99.90
13251;DHT22;6692;50.710;7.180;2023-06-24T01:16:11;18.30;99.90
13251;DHT22;6692;50.710;7.180;2023-06-24T01:18:20;18.30;99.90
13251;DHT22;6692;50.710;7.180;2023-06-24T01:20:25;18.30;99.90
13251;DHT22;6692;50.710;7.180;2023-06-24T01:24:42;18.30;99.90
13251;DHT22;6692;50.710;7.180;2023-06-24T01:26:50;18.30;99.90
13251;DHT22;6692;50.710;7.180;2023-06-24T01:29:12;18.30;99.90
13251;DHT22;6692;50.710;7.180;2023-06-24T01:31:23;18.20;99.90
13251;DHT22;6692;50.710;7.180;2023-06-24T01:33:24;18.20;99.90
13251;DHT22;6692;50.710;7.180;2023-06-24T01:35:25;18.20;99.90
13251;DHT22;6692;50.710;7.180;2023-06-24T01:37:37;18.20;99.90
13251;DHT22;6692;50.710;7.180;2023-06-24T01:39:38;18.20;99.90
13251;DHT22;6692;50.710;7.180;2023-06-24T01:41:42;18.30;99.90
13251;DHT22;6692;50.710;7.180;2023-06-24T01:43:42;18.30;99.90
13251;DHT22;6692;50.710;7.180;2023-06-24T01:45:45;18.30;99.90
13251;DHT22;6692;50.710;7.180;2023-06-24T01:47:45;18.40;99.90
13251;DHT22;6692;50.710;7.180;2023-06-24T01:49:46;18.40;99.90
13251;DHT22;6692;50.710;7.180;2023-06-24T01:51:47;18.40;99.90
13251;DHT22;6692;50.710;7.180;2023-06-24T01:53:51;18.40;99.90
13251;DHT22;6692;50.710;7.180;2023-06-24T01:55:49;18.40;99.90
13251;DHT22;6692;50.710;7.180;2023-06-24T01:57:50;18.40;99.90
13251;DHT22;6692;50.710;7.180;2023-06-24T01:59:52;18.40;99.90
13251;DHT22;6692;50.710;7.180;2023-06-24T02:01:51;18.40;99.90
13251;DHT22;6692;50.710;7.180;2023-06-24T02:03:52;18.40;99.90
13251;DHT22;6692;50.710;7.180;2023-06-24T02:05:52;18.40;99.90
13251;DHT22;6692;50.710;7.180;2023-06-24T02:07:53;18.30;99.90
13251;DHT22;6692;50.710;7.180;2023-06-24T02:09:54;18.30;99.90
13251;DHT22;6692;50.710;7.180;2023-06-24T02:11:55;18.30;99.90
13251;DHT22;6692;50.710;7.180;2023-06-24T02:13:55;18.30;99.90
13251;DHT22;6692;50.710;7.180;2023-06-24T02:15:56;18.20;99.90
13251;DHT22;6692;50.710;7.180;2023-06-24T02:17:58;18.20;99.90
13251;DHT22;6692;50.710;7.180;2023-06-24T02:19:58;18.10;99.90
13251;DHT22;6692;50.710;7.180;2023-06-24T02:21:59;18.10;99.90
13251;DHT22;6692;50.710;7.180;2023-06-24T02:24:01;18.10;99.90
13251;DHT22;6692;50.710;7.180;2023-06-24T02:26:03;18.00;99.90
13251;DHT22;6692;50.710;7.180;2023-06-24T02:28:03;18.00;99.90
13251;DHT22;6692;50.710;7.180;2023-06-24T02:30:05;18.00;99.90
13251;DHT22;6692;50.710;7.180;2023-06-24T02:32:07;18.00;99.90
13251;DHT22;6692;50.710;7.180;2023-06-24T02:34:08;18.00;99.90
13251;DHT22;6692;50.710;7.180;2023-06-24T02:36:08;18.00;99.90
13251;DHT22;6692;50.710;7.180;2023-06-24T02:38:09;18.00;99.90
13251;DHT22;6692;50.710;7.180;2023-06-24T02:40:11;17.90;99.90
13251;DHT22;6692;50.710;7.180;2023-06-24T02:42:12;18.00;99.90
13251;DHT22;6692;50.710;7.180;2023-06-24T02:44:13;17.90;99.90
13251;DHT22;6692;50.710;7.180;2023-06-24T02:46:13;17.90;99.90
13251;DHT22;6692;50.710;7.180;2023-06-24T02:48:14;17.90;99.90
13251;DHT22;6692;50.710;7.180;2023-06-24T02:50:16;18.00;99.90
13251;DHT22;6692;50.710;7.180;2023-06-24T02:52:17;17.90;99.90
13251;DHT22;6692;50.710;7.180;2023-06-24T02:54:17;17.90;99.90
13251;DHT22;6692;50.710;7.180;2023-06-24T02:56:18;18.00;99.90
13251;DHT22;6692;50.710;7.180;2023-06-24T02:58:19;18.00;99.90
13251;DHT22;6692;50.710;7.180;2023-06-24T03:00:20;18.00;99.90
13251;DHT22;6692;50.710;7.180;2023-06-24T03:02:21;17.90;99.90
13251;DHT22;6692;50.710;7.180;2023-06-24T03:04:22;17.90;99.90
13251;DHT22;6692;50.710;7.180;2023-06-24T03:06:23;17.90;99.90
13251;DHT22;6692;50.710;7.180;2023-06-24T03:08:24;17.90;99.90
13251;DHT22;6692;50.710;7.180;2023-06-24T03:10:24;17.90;99.90
13251;DHT22;6692;50.710;7.180;2023-06-24T03:12:25;17.80;99.90
13251;DHT22;6692;50.710;7.180;2023-06-24T03:14:26;17.80;99.90
13251;DHT22;6692;50.710;7.180;2023-06-24T03:16:27;17.70;99.90
13251;DHT22;6692;50.710;7.180;2023-06-24T03:18:28;17.70;99.90
13251;DHT22;6692;50.710;7.180;2023-06-24T03:20:29;17.70;99.90
13251;DHT22;6692;50.710;7.180;2023-06-24T03:22:30;17.60;99.90
13251;DHT22;6692;50.710;7.180;2023-06-24T03:24:31;17.60;99.90
13251;DHT22;6692;50.710;7.180;2023-06-24T03:26:32;17.60;99.90
13251;DHT22;6692;50.710;7.180;2023-06-24T03:28:32;17.60;99.90
13251;DHT22;6692;50.710;7.180;2023-06-24T03:30:33;17.70;99.90
13251;DHT22;6692;50.710;7.180;2023-06-24T03:32:34;17.70;99.90
13251;DHT22;6692;50.710;7.180;2023-06-24T03:34:34;17.70;99.90
13251;DHT22;6692;50.710;7.180;2023-06-24T03:36:35;17.70;99.90
13251;DHT22;6692;50.710;7.180;2023-06-24T03:38:36;17.70;99.90
13251;DHT22;6692;50.710;7.180;2023-06-24T03:40:37;17.80;99.90
13251;DHT22;6692;50.710;7.180;2023-06-24T03:42:37;17.80;99.90
13251;DHT22;6692;50.710;7.180;2023-06-24T03:44:38;17.80;99.90
13251;DHT22;6692;50.710;7.180;2023-06-24T03:46:39;17.80;99.90
13251;DHT22;6692;50.710;7.180;2023-06-24T03:48:39;17.80;99.90
13251;DHT22;6692;50.710;7.180;2023-06-24T03:50:41;17.80;99.90
13251;DHT22;6692;50.710;7.180;2023-06-24T03:52:42;17.80;99.90
13251;DHT22;6692;50.710;7.180;2023-06-24T03:54:43;17.80;99.90
13251;DHT22;6692;50.710;7.180;2023-06-24T03:56:44;17.80;99.90
13251;DHT22;6692;50.710;7.180;2023-06-24T03:58:44;17.80;99.90
13251;DHT22;6692;50.710;7.180;2023-06-24T04:00:45;17.80;99.90
13251;DHT22;6692;50.710;7.180;2023-06-24T04:02:47;17.90;99.90
13251;DHT22;6692;50.710;7.180;2023-06-24T04:04:47;17.90;99.90
13251;DHT22;6692;50.710;7.180;2023-06-24T04:06:49;17.90;99.90
13251;DHT22;6692;50.710;7.180;2023-06-24T04:08:50;17.90;99.90
13251;DHT22;6692;50.710;7.180;2023-06-24T04:10:50;17.90;99.90
13251;DHT22;6692;50.710;7.180;2023-06-24T04:12:51;17.90;99.90
13251;DHT22;6692;50.710;7.180;2023-06-24T04:14:52;17.90;99.90
13251;DHT22;6692;50.710;7.180;2023-06-24T04:16:52;17.90;99.90
13251;DHT22;6692;50.710;7.180;2023-06-24T04:18:53;17.90;99.90
13251;DHT22;6692;50.710;7.180;2023-06-24T04:20:55;17.90;99.90
13251;DHT22;6692;50.710;7.180;2023-06-24T04:22:55;17.90;99.90
13251;DHT22;6692;50.710;7.180;2023-06-24T04:24:56;17.90;99.90
13251;DHT22;6692;50.710;7.180;2023-06-24T04:26:57;18.00;99.90
13251;DHT22;6692;50.710;7.180;2023-06-24T04:28:58;17.90;99.90
13251;DHT22;6692;50.710;7.180;2023-06-24T04:30:59;17.90;99.90
13251;DHT22;6692;50.710;7.180;2023-06-24T04:33:01;18.00;99.90
13251;DHT22;6692;50.710;7.180;2023-06-24T04:35:01;18.00;99.90
13251;DHT22;6692;50.710;7.180;2023-06-24T04:37:03;18.00;99.90
13251;DHT22;6692;50.710;7.180;2023-06-24T04:39:03;18.00;99.90
13251;DHT22;6692;50.710;7.180;2023-06-24T04:41:04;18.10;99.90
13251;DHT22;6692;50.710;7.180;2023-06-24T04:43:05;18.20;99.90
13251;DHT22;6692;50.710;7.180;2023-06-24T04:45:07;18.30;99.90
13251;DHT22;6692;50.710;7.180;2023-06-24T04:47:08;18.30;99.90
13251;DHT22;6692;50.710;7.180;2023-06-24T04:49:08;18.30;99.90
13251;DHT22;6692;50.710;7.180;2023-06-24T04:51:09;18.40;99.90
13251;DHT22;6692;50.710;7.180;2023-06-24T04:53:10;18.40;99.90
13251;DHT22;6692;50.710;7.180;2023-06-24T04:55:11;18.40;99.90
13251;DHT22;6692;50.710;7.180;2023-06-24T04:57:22;18.40;99.90
13251;DHT22;6692;50.710;7.180;2023-06-24T04:59:13;18.40;99.90
13251;DHT22;6692;50.710;7.180;2023-06-24T05:01:13;18.50;99.90
13251;DHT22;6692;50.710;7.180;2023-06-24T05:03:14;18.50;99.90
13251;DHT22;6692;50.710;7.180;2023-06-24T05:05:15;18.60;99.90
13251;DHT22;6692;50.710;7.180;2023-06-24T05:07:16;18.70;99.90
13251;DHT22;6692;50.710;7.180;2023-06-24T05:09:17;18.70;99.90
13251;DHT22;6692;50.710;7.180;2023-06-24T05:11:19;18.80;99.90
13251;DHT22;6692;50.710;7.180;2023-06-24T05:13:20;18.70;99.90
13251;DHT22;6692;50.710;7.180;2023-06-24T05:15:20;18.80;99.90
13251;DHT22;6692;50.710;7.180;2023-06-24T05:17:22;18.90;99.90
13251;DHT22;6692;50.710;7.180;2023-06-24T05:19:23;18.80;99.90
13251;DHT22;6692;50.710;7.180;2023-06-24T05:21:23;18.90;99.90
13251;DHT22;6692;50.710;7.180;2023-06-24T05:23:24;18.90;99.90
13251;DHT22;6692;50.710;7.180;2023-06-24T05:25:25;18.90;99.90
13251;DHT22;6692;50.710;7.180;2023-06-24T05:27:26;18.90;99.90
13251;DHT22;6692;50.710;7.180;2023-06-24T05:29:27;18.90;99.90
13251;DHT22;6692;50.710;7.180;2023-06-24T05:31:28;18.80;99.90
13251;DHT22;6692;50.710;7.180;2023-06-24T05:33:29;18.80;99.90
13251;DHT22;6692;50.710;7.180;2023-06-24T05:35:30;18.80;99.90
13251;DHT22;6692;50.710;7.180;2023-06-24T05:37:31;18.80;99.90
13251;DHT22;6692;50.710;7.180;2023-06-24T05:39:32;18.70;99.90
13251;DHT22;6692;50.710;7.180;2023-06-24T05:41:33;18.80;99.90
13251;DHT22;6692;50.710;7.180;2023-06-24T05:43:34;18.80;99.90
13251;DHT22;6692;50.710;7.180;2023-06-24T05:45:34;18.90;99.90
13251;DHT22;6692;50.710;7.180;2023-06-24T05:47:36;19.00;99.90
13251;DHT22;6692;50.710;7.180;2023-06-24T05:49:36;19.10;99.90
13251;DHT22;6692;50.710;7.180;2023-06-24T05:51:37;19.10;99.90
13251;DHT22;6692;50.710;7.180;2023-06-24T05:53:38;19.20;99.90
13251;DHT22;6692;50.710;7.180;2023-06-24T05:55:39;19.20;99.90
13251;DHT22;6692;50.710;7.180;2023-06-24T05:57:39;19.30;99.90
13251;DHT22;6692;50.710;7.180;2023-06-24T05:59:40;19.40;99.90
13251;DHT22;6692;50.710;7.180;2023-06-24T06:01:41;19.40;99.90
13251;DHT22;6692;50.710;7.180;2023-06-24T06:03:41;19.50;99.90
13251;DHT22;6692;50.710;7.180;2023-06-24T06:05:42;19.50;99.90
13251;DHT22;6692;50.710;7.180;2023-06-24T06:07:43;19.60;99.90
13251;DHT22;6692;50.710;7.180;2023-06-24T06:09:44;19.60;99.90
13251;DHT22;6692;50.710;7.180;2023-06-24T06:11:45;19.70;99.90
13251;DHT22;6692;50.710;7.180;2023-06-24T06:13:45;19.70;99.90
13251;DHT22;6692;50.710;7.180;2023-06-24T06:15:46;19.80;99.90
13251;DHT22;6692;50.710;7.180;2023-06-24T06:17:47;19.90;99.90
13251;DHT22;6692;50.710;7.180;2023-06-24T06:19:47;19.90;99.90
13251;DHT22;6692;50.710;7.180;2023-06-24T06:21:49;20.00;99.90
13251;DHT22;6692;50.710;7.180;2023-06-24T06:23:49;20.00;99.90
13251;DHT22;6692;50.710;7.180;2023-06-24T06:25:51;20.20;99.90
13251;DHT22;6692;50.710;7.180;2023-06-24T06:27:52;20.10;99.90
13251;DHT22;6692;50.710;7.180;2023-06-24T06:29:52;20.20;99.90
13251;DHT22;6692;50.710;7.180;2023-06-24T06:31:53;20.20;99.90
13251;DHT22;6692;50.710;7.180;2023-06-24T06:33:54;20.30;99.90
13251;DHT22;6692;50.710;7.180;2023-06-24T06:35:55;20.30;99.90
13251;DHT22;6692;50.710;7.180;2023-06-24T06:37:57;20.40;99.90
13251;DHT22;6692;50.710;7.180;2023-06-24T06:39:57;20.50;99.90
13251;DHT22;6692;50.710;7.180;2023-06-24T06:41:58;20.50;99.90
13251;DHT22;6692;50.710;7.180;2023-06-24T06:43:59;20.50;99.90
13251;DHT22;6692;50.710;7.180;2023-06-24T06:46:00;20.60;99.90
13251;DHT22;6692;50.710;7.180;2023-06-24T06:48:01;20.60;99.90
13251;DHT22;6692;50.710;7.180;2023-06-24T06:50:02;20.60;99.90
13251;DHT22;6692;50.710;7.180;2023-06-24T06:52:04;20.80;99.90
13251;DHT22;6692;50.710;7.180;2023-06-24T06:54:05;20.70;99.90
13251;DHT22;6692;50.710;7.180;2023-06-24T06:56:05;20.80;99.90
13251;DHT22;6692;50.710;7.180;2023-06-24T06:58:07;20.90;99.90
13251;DHT22;6692;50.710;7.180;2023-06-24T07:00:08;20.90;99.90
13251;DHT22;6692;50.710;7.180;2023-06-24T07:02:09;20.90;99.90
13251;DHT22;6692;50.710;7.180;2023-06-24T07:04:10;20.90;99.90
13251;DHT22;6692;50.710;7.180;2023-06-24T07:06:11;20.90;99.90
13251;DHT22;6692;50.710;7.180;2023-06-24T07:08:11;21.00;99.90
13251;DHT22;6692;50.710;7.180;2023-06-24T07:10:12;21.00;99.90
13251;DHT22;6692;50.710;7.180;2023-06-24T07:12:13;21.10;99.90
13251;DHT22;6692;50.710;7.180;2023-06-24T07:14:13;21.10;99.90
13251;DHT22;6692;50.710;7.180;2023-06-24T07:16:14;21.20;99.90
13251;DHT22;6692;50.710;7.180;2023-06-24T07:18:15;21.20;99.90
13251;DHT22;6692;50.710;7.180;2023-06-24T07:20:16;21.20;99.90
13251;DHT22;6692;50.710;7.180;2023-06-24T07:22:16;21.30;99.90
13251;DHT22;6692;50.710;7.180;2023-06-24T07:24:17;21.30;99.90
13251;DHT22;6692;50.710;7.180;2023-06-24T07:26:18;21.40;99.90
13251;DHT22;6692;50.710;7.180;2023-06-24T07:28:18;21.40;99.90
13251;DHT22;6692;50.710;7.180;2023-06-24T07:30:19;21.40;99.90
13251;DHT22;6692;50.710;7.180;2023-06-24T07:32:20;21.40;99.90
13251;DHT22;6692;50.710;7.180;2023-06-24T07:34:21;21.50;99.90
13251;DHT22;6692;50.710;7.180;2023-06-24T07:36:21;21.50;99.90
13251;DHT22;6692;50.710;7.180;2023-06-24T07:38:23;21.60;99.90
13251;DHT22;6692;50.710;7.180;2023-06-24T07:40:24;21.60;99.90
13251;DHT22;6692;50.710;7.180;2023-06-24T07:42:24;21.60;99.90
13251;DHT22;6692;50.710;7.180;2023-06-24T07:44:25;21.70;99.90
13251;DHT22;6692;50.710;7.180;2023-06-24T07:46:26;21.70;99.90
13251;DHT22;6692;50.710;7.180;2023-06-24T07:48:27;21.70;99.90
13251;DHT22;6692;50.710;7.180;2023-06-24T07:50:28;21.80;99.90
13251;DHT22;6692;50.710;7.180;2023-06-24T07:52:28;21.70;99.90
13251;DHT22;6692;50.710;7.180;2023-06-24T07:54:29;21.80;99.90
13251;DHT22;6692;50.710;7.180;2023-06-24T07:56:30;21.80;99.90
13251;DHT22;6692;50.710;7.180;2023-06-24T07:58:31;21.90;99.90
13251;DHT22;6692;50.710;7.180;2023-06-24T08:00:32;21.90;99.90
13251;DHT22;6692;50.710;7.180;2023-06-24T08:02:32;22.00;99.90
13251;DHT22;6692;50.710;7.180;2023-06-24T08:04:33;22.00;99.90
13251;DHT22;6692;50.710;7.180;2023-06-24T08:06:34;22.00;99.90
13251;DHT22;6692;50.710;7.180;2023-06-24T08:08:35;22.00;99.90
13251;DHT22;6692;50.710;7.180;2023-06-24T08:10:36;22.00;99.90
13251;DHT22;6692;50.710;7.180;2023-06-24T08:12:36;22.00;99.90
13251;DHT22;6692;50.710;7.180;2023-06-24T08:14:37;22.00;99.90
13251;DHT22;6692;50.710;7.180;2023-06-24T08:16:38;22.00;99.90
13251;DHT22;6692;50.710;7.180;2023-06-24T08:18:38;22.00;99.90
13251;DHT22;6692;50.710;7.180;2023-06-24T08:20:39;22.10;99.90
13251;DHT22;6692;50.710;7.180;2023-06-24T08:22:41;22.20;99.90
13251;DHT22;6692;50.710;7.180;2023-06-24T08:24:42;22.20;99.90
13251;DHT22;6692;50.710;7.180;2023-06-24T08:26:43;22.30;99.90
13251;DHT22;6692;50.710;7.180;2023-06-24T08:28:45;22.40;99.90
13251;DHT22;6692;50.710;7.180;2023-06-24T08:30:44;22.50;99.90
13251;DHT22;6692;50.710;7.180;2023-06-24T08:32:45;22.60;99.90
13251;DHT22;6692;50.710;7.180;2023-06-24T08:34:46;22.60;99.90
13251;DHT22;6692;50.710;7.180;2023-06-24T08:36:47;22.70;99.90
13251;DHT22;6692;50.710;7.180;2023-06-24T08:38:47;22.80;99.90
13251;DHT22;6692;50.710;7.180;2023-06-24T08:40:49;22.70;99.90
13251;DHT22;6692;50.710;7.180;2023-06-24T08:42:49;22.70;99.90
13251;DHT22;6692;50.710;7.180;2023-06-24T08:44:50;22.70;99.90
13251;DHT22;6692;50.710;7.180;2023-06-24T08:46:50;22.60;99.90
13251;DHT22;6692;50.710;7.180;2023-06-24T08:48:57;22.60;99.90
13251;DHT22;6692;50.710;7.180;2023-06-24T08:50:55;22.60;99.90
13251;DHT22;6692;50.710;7.180;2023-06-24T08:52:55;22.60;99.90
13251;DHT22;6692;50.710;7.180;2023-06-24T08:54:56;22.60;99.90
13251;DHT22;6692;50.710;7.180;2023-06-24T08:56:57;22.60;99.90
13251;DHT22;6692;50.710;7.180;2023-06-24T08:58:57;22.70;99.90
13251;DHT22;6692;50.710;7.180;2023-06-24T09:00:58;22.70;99.90
13251;DHT22;6692;50.710;7.180;2023-06-24T09:02:59;22.70;99.90
13251;DHT22;6692;50.710;7.180;2023-06-24T09:05:00;22.70;99.90
13251;DHT22;6692;50.710;7.180;2023-06-24T09:07:00;22.70;99.90
13251;DHT22;6692;50.710;7.180;2023-06-24T09:09:01;22.70;99.90
13251;DHT22;6692;50.710;7.180;2023-06-24T09:11:02;22.70;99.90
13251;DHT22;6692;50.710;7.180;2023-06-24T09:13:03;22.70;99.90
13251;DHT22;6692;50.710;7.180;2023-06-24T09:15:05;22.70;99.90
13251;DHT22;6692;50.710;7.180;2023-06-24T09:17:06;22.70;99.90
13251;DHT22;6692;50.710;7.180;2023-06-24T09:19:07;22.70;99.90
13251;DHT22;6692;50.710;7.180;2023-06-24T09:21:10;22.70;99.90
13251;DHT22;6692;50.710;7.180;2023-06-24T09:23:09;22.80;99.90
13251;DHT22;6692;50.710;7.180;2023-06-24T09:25:13;22.70;99.90
13251;DHT22;6692;50.710;7.180;2023-06-24T09:27:10;22.90;99.90
13251;DHT22;6692;50.710;7.180;2023-06-24T09:29:12;23.00;99.90
13251;DHT22;6692;50.710;7.180;2023-06-24T09:31:12;22.90;99.90
13251;DHT22;6692;50.710;7.180;2023-06-24T09:33:14;22.90;99.90
13251;DHT22;6692;50.710;7.180;2023-06-24T09:35:18;22.90;99.90
13251;DHT22;6692;50.710;7.180;2023-06-24T09:37:21;23.00;99.90
13251;DHT22;6692;50.710;7.180;2023-06-24T09:39:22;23.00;99.90
13251;DHT22;6692;50.710;7.180;2023-06-24T09:41:22;23.00;99.90
13251;DHT22;6692;50.710;7.180;2023-06-24T09:43:23;23.10;99.90
13251;DHT22;6692;50.710;7.180;2023-06-24T09:45:25;23.10;99.90
13251;DHT22;6692;50.710;7.180;2023-06-24T09:47:25;23.20;99.90
13251;DHT22;6692;50.710;7.180;2023-06-24T09:49:26;23.30;99.90
13251;DHT22;6692;50.710;7.180;2023-06-24T09:51:27;23.60;99.90
13251;DHT22;6692;50.710;7.180;2023-06-24T09:53:31;23.60;99.90
13251;DHT22;6692;50.710;7.180;2023-06-24T09:55:31;23.70;99.90
13251;DHT22;6692;50.710;7.180;2023-06-24T09:57:32;23.80;99.90
13251;DHT22;6692;50.710;7.180;2023-06-24T09:59:32;23.90;99.90
13251;DHT22;6692;50.710;7.180;2023-06-24T10:01:35;24.10;99.90
13251;DHT22;6692;50.710;7.180;2023-06-24T10:03:35;24.20;99.90
13251;DHT22;6692;50.710;7.180;2023-06-24T10:05:35;24.30;99.90
13251;DHT22;6692;50.710;7.180;2023-06-24T10:07:36;24.30;99.90
13251;DHT22;6692;50.710;7.180;2023-06-24T10:09:38;24.40;99.90
13251;DHT22;6692;50.710;7.180;2023-06-24T10:11:37;24.40;99.90
13251;DHT22;6692;50.710;7.180;2023-06-24T10:13:38;24.50;99.90
13251;DHT22;6692;50.710;7.180;2023-06-24T10:15:40;24.70;99.90
13251;DHT22;6692;50.710;7.180;2023-06-24T10:17:41;24.60;99.90
13251;DHT22;6692;50.710;7.180;2023-06-24T10:19:42;24.70;99.90
13251;DHT22;6692;50.710;7.180;2023-06-24T10:21:44;24.80;99.90
13251;DHT22;6692;50.710;7.180;2023-06-24T10:23:54;25.00;99.90
13251;DHT22;6692;50.710;7.180;2023-06-24T10:25:54;24.90;99.90
13251;DHT22;6692;50.710;7.180;2023-06-24T10:27:55;25.10;99.90
13251;DHT22;6692;50.710;7.180;2023-06-24T10:29:56;25.00;99.90
13251;DHT22;6692;50.710;7.180;2023-06-24T10:31:57;25.00;99.90
13251;DHT22;6692;50.710;7.180;2023-06-24T10:33:58;25.00;99.90
13251;DHT22;6692;50.710;7.180;2023-06-24T10:36:00;25.00;99.90
13251;DHT22;6692;50.710;7.180;2023-06-24T10:37:59;24.90;99.90
13251;DHT22;6692;50.710;7.180;2023-06-24T10:40:01;24.80;99.90
13251;DHT22;6692;50.710;7.180;2023-06-24T10:44:15;24.70;99.90
13251;DHT22;6692;50.710;7.180;2023-06-24T10:46:16;24.70;99.90
13251;DHT22;6692;50.710;7.180;2023-06-24T10:48:17;24.60;99.90
13251;DHT22;6692;50.710;7.180;2023-06-24T10:50:21;24.50;99.90
13251;DHT22;6692;50.710;7.180;2023-06-24T10:52:22;24.50;99.90
13251;DHT22;6692;50.710;7.180;2023-06-24T10:54:22;24.50;99.90
13251;DHT22;6692;50.710;7.180;2023-06-24T10:56:29;24.50;99.90
13251;DHT22;6692;50.710;7.180;2023-06-24T10:58:24;24.50;99.90
13251;DHT22;6692;50.710;7.180;2023-06-24T11:00:25;24.70;99.90
13251;DHT22;6692;50.710;7.180;2023-06-24T11:02:27;24.70;99.90
13251;DHT22;6692;50.710;7.180;2023-06-24T11:04:28;24.70;99.90
13251;DHT22;6692;50.710;7.180;2023-06-24T11:06:28;24.70;99.90
13251;DHT22;6692;50.710;7.180;2023-06-24T11:08:29;24.70;99.90
13251;DHT22;6692;50.710;7.180;2023-06-24T11:10:30;24.70;99.90
13251;DHT22;6692;50.710;7.180;2023-06-24T11:12:32;24.80;99.90
13251;DHT22;6692;50.710;7.180;2023-06-24T11:14:33;24.70;99.90
13251;DHT22;6692;50.710;7.180;2023-06-24T11:16:34;24.80;99.90
13251;DHT22;6692;50.710;7.180;2023-06-24T11:18:38;24.80;99.90
13251;DHT22;6692;50.710;7.180;2023-06-24T11:20:39;24.80;99.90
13251;DHT22;6692;50.710;7.180;2023-06-24T11:22:40;24.80;99.90
13251;DHT22;6692;50.710;7.180;2023-06-24T11:24:40;24.80;99.90
13251;DHT22;6692;50.710;7.180;2023-06-24T11:26:41;24.90;99.90
13251;DHT22;6692;50.710;7.180;2023-06-24T11:28:42;25.10;99.90
13251;DHT22;6692;50.710;7.180;2023-06-24T11:30:43;25.20;99.90
13251;DHT22;6692;50.710;7.180;2023-06-24T11:32:44;25.30;99.90
13251;DHT22;6692;50.710;7.180;2023-06-24T11:40:02;25.70;99.90
13251;DHT22;6692;50.710;7.180;2023-06-24T11:42:02;25.70;99.90
13251;DHT22;6692;50.710;7.180;2023-06-24T11:44:03;25.80;99.90
13251;DHT22;6692;50.710;7.180;2023-06-24T11:46:04;25.70;99.90
13251;DHT22;6692;50.710;7.180;2023-06-24T11:48:05;25.70;99.90
13251;DHT22;6692;50.710;7.180;2023-06-24T11:50:06;25.70;99.90
13251;DHT22;6692;50.710;7.180;2023-06-24T11:52:07;25.80;99.90
13251;DHT22;6692;50.710;7.180;2023-06-24T11:54:08;25.80;99.90
13251;DHT22;6692;50.710;7.180;2023-06-24T11:56:09;25.90;99.90
13251;DHT22;6692;50.710;7.180;2023-06-24T11:58:09;25.90;99.90
13251;DHT22;6692;50.710;7.180;2023-06-24T12:00:12;25.90;99.90
13251;DHT22;6692;50.710;7.180;2023-06-24T12:02:14;25.80;99.90
13251;DHT22;6692;50.710;7.180;2023-06-24T12:04:15;25.80;99.90
13251;DHT22;6692;50.710;7.180;2023-06-24T12:06:15;25.80;99.90
13251;DHT22;6692;50.710;7.180;2023-06-24T12:08:16;25.90;99.90
13251;DHT22;6692;50.710;7.180;2023-06-24T12:10:17;25.80;99.90
13251;DHT22;6692;50.710;7.180;2023-06-24T12:12:17;25.80;99.90
13251;DHT22;6692;50.710;7.180;2023-06-24T12:14:18;25.70;99.90
13251;DHT22;6692;50.710;7.180;2023-06-24T12:16:19;25.70;99.90
13251;DHT22;6692;50.710;7.180;2023-06-24T12:18:20;25.70;99.90
13251;DHT22;6692;50.710;7.180;2023-06-24T12:20:20;25.70;99.90
13251;DHT22;6692;50.710;7.180;2023-06-24T12:22:21;25.80;99.90
13251;DHT22;6692;50.710;7.180;2023-06-24T12:24:22;25.90;99.90
13251;DHT22;6692;50.710;7.180;2023-06-24T12:26:22;25.90;99.90
13251;DHT22;6692;50.710;7.180;2023-06-24T12:28:23;26.10;99.90
13251;DHT22;6692;50.710;7.180;2023-06-24T12:30:24;26.50;99.90
13251;DHT22;6692;50.710;7.180;2023-06-24T12:32:25;27.20;99.90
13251;DHT22;6692;50.710;7.180;2023-06-24T12:34:25;28.00;99.90
13251;DHT22;6692;50.710;7.180;2023-06-24T12:36:26;29.10;99.90
13251;DHT22;6692;50.710;7.180;2023-06-24T12:38:27;30.00;97.50
13251;DHT22;6692;50.710;7.180;2023-06-24T12:40:28;31.00;97.30
13251;DHT22;6692;50.710;7.180;2023-06-24T12:42:28;31.80;94.10
13251;DHT22;6692;50.710;7.180;2023-06-24T12:44:29;32.30;91.30
13251;DHT22;6692;50.710;7.180;2023-06-24T12:46:30;32.20;88.20
13251;DHT22;6692;50.710;7.180;2023-06-24T12:48:30;32.00;87.70
13251;DHT22;6692;50.710;7.180;2023-06-24T12:50:31;32.20;80.50
13251;DHT22;6692;50.710;7.180;2023-06-24T12:52:33;32.60;80.90
13251;DHT22;6692;50.710;7.180;2023-06-24T12:54:32;32.90;75.80
13251;DHT22;6692;50.710;7.180;2023-06-24T12:56:33;33.30;76.10
13251;DHT22;6692;50.710;7.180;2023-06-24T12:58:34;33.50;79.10
13251;DHT22;6692;50.710;7.180;2023-06-24T13:00:35;34.00;82.10
13251;DHT22;6692;50.710;7.180;2023-06-24T13:02:36;34.90;83.20
13251;DHT22;6692;50.710;7.180;2023-06-24T13:04:37;34.80;83.10
13251;DHT22;6692;50.710;7.180;2023-06-24T13:06:38;35.20;81.80